sensor_id;sensor_type;location;lat;lon;timestamp;pressure;altitude;pressure_sealevel;temperature;humidity
59417;BME280;45222;52.458;20.914;2023-03-01T00:01:52;102090.25;;;-5.34;76.41
59417;BME280;45222;52.458;20.914;2023-03-01T00:05:45;102090.87;;;-5.28;76.44
59417;BME280;45222;52.458;20.914;2023-03-01T00:09:43;102085.96;;;-5.13;76.85
59417;BME280;45222;52.458;20.914;2023-03-01T00:13:30;102079.52;;;-5.05;76.94
59417;BME280;45222;52.458;20.914;2023-03-01T00:17:22;102071.60;;;-5.00;76.89
59417;BME280;45222;52.458;20.914;2023-03-01T00:21:22;102072.14;;;-5.00;76.75
59417;BME280;45222;52.458;20.914;2023-03-01T00:25:08;102070.83;;;-4.98;76.17
59417;BME280;45222;52.458;20.914;2023-03-01T00:29:13;102071.64;;;-5.03;76.32
59417;BME280;45222;52.458;20.914;2023-03-01T00:32:59;102075.68;;;-5.10;76.19
59417;BME280;45222;52.458;20.914;2023-03-01T00:36:51;102075.25;;;-5.16;76.54
59417;BME280;45222;52.458;20.914;2023-03-01T00:40:49;102071.99;;;-5.16;76.60
59417;BME280;45222;52.458;20.914;2023-03-01T00:44:41;102069.23;;;-5.03;77.05
59417;BME280;45222;52.458;20.914;2023-03-01T00:48:40;102059.16;;;-4.99;76.86
59417;BME280;45222;52.458;20.914;2023-03-01T00:52:25;102058.39;;;-4.97;77.16
59417;BME280;45222;52.458;20.914;2023-03-01T00:56:16;102049.67;;;-4.93;77.28
59417;BME280;45222;52.458;20.914;2023-03-01T01:00:16;102056.52;;;-4.91;77.34
59417;BME280;45222;52.458;20.914;2023-03-01T01:04:03;102054.46;;;-4.91;77.04
59417;BME280;45222;52.458;20.914;2023-03-01T01:07:55;102051.29;;;-4.92;77.27
59417;BME280;45222;52.458;20.914;2023-03-01T01:11:53;102047.84;;;-4.95;76.91
59417;BME280;45222;52.458;20.914;2023-03-01T01:15:39;102051.84;;;-5.00;77.17
59417;BME280;45222;52.458;20.914;2023-03-01T01:19:31;102055.91;;;-5.02;77.23
59417;BME280;45222;52.458;20.914;2023-03-01T01:23:23;102043.23;;;-5.07;76.99
59417;BME280;45222;52.458;20.914;2023-03-01T01:27:22;102041.52;;;-5.10;77.21
59417;BME280;45222;52.458;20.914;2023-03-01T01:31:14;102040.99;;;-5.14;77.22
59417;BME280;45222;52.458;20.914;2023-03-01T01:35:13;102046.34;;;-5.19;77.60
59417;BME280;45222;52.458;20.914;2023-03-01T01:38:58;102036.30;;;-5.22;77.66
59417;BME280;45222;52.458;20.914;2023-03-01T01:42:50;102030.17;;;-5.20;77.57
59417;BME280;45222;52.458;20.914;2023-03-01T01:46:52;102027.67;;;-5.13;77.45
59417;BME280;45222;52.458;20.914;2023-03-01T01:50:40;102023.58;;;-5.04;77.47
59417;BME280;45222;52.458;20.914;2023-03-01T01:54:37;102022.36;;;-4.95;77.63
59417;BME280;45222;52.458;20.914;2023-03-01T01:58:40;102023.83;;;-4.89;77.27
59417;BME280;45222;52.458;20.914;2023-03-01T02:02:46;102014.44;;;-4.93;77.29
59417;BME280;45222;52.458;20.914;2023-03-01T02:06:38;102010.56;;;-4.95;77.44
59417;BME280;45222;52.458;20.914;2023-03-01T02:10:44;102008.58;;;-5.01;77.32
59417;BME280;45222;52.458;20.914;2023-03-01T02:14:31;102007.24;;;-5.08;77.45
59417;BME280;45222;52.458;20.914;2023-03-01T02:18:36;102003.66;;;-5.19;77.22
59417;BME280;45222;52.458;20.914;2023-03-01T02:22:25;101995.39;;;-5.30;77.31
59417;BME280;45222;52.458;20.914;2023-03-01T02:26:23;101991.41;;;-5.38;77.52
59417;BME280;45222;52.458;20.914;2023-03-01T02:30:25;101990.52;;;-5.43;77.76
59417;BME280;45222;52.458;20.914;2023-03-01T02:34:23;101992.95;;;-5.43;77.21
59417;BME280;45222;52.458;20.914;2023-03-01T02:38:08;101995.14;;;-5.44;77.10
59417;BME280;45222;52.458;20.914;2023-03-01T02:41:55;101988.29;;;-5.42;77.32
59417;BME280;45222;52.458;20.914;2023-03-01T02:45:48;101981.48;;;-5.35;77.50
59417;BME280;45222;52.458;20.914;2023-03-01T02:49:36;101969.21;;;-5.26;77.55
59417;BME280;45222;52.458;20.914;2023-03-01T02:53:29;101965.52;;;-5.18;77.89
59417;BME280;45222;52.458;20.914;2023-03-01T02:57:20;101956.78;;;-5.12;77.93
59417;BME280;45222;52.458;20.914;2023-03-01T03:01:06;101956.98;;;-5.11;78.25
59417;BME280;45222;52.458;20.914;2023-03-01T03:04:53;101958.45;;;-5.09;78.51
59417;BME280;45222;52.458;20.914;2023-03-01T03:08:39;101956.83;;;-5.11;78.24
59417;BME280;45222;52.458;20.914;2023-03-01T03:12:24;101953.39;;;-5.15;78.45
59417;BME280;45222;52.458;20.914;2023-03-01T03:16:09;101960.16;;;-5.18;78.44
59417;BME280;45222;52.458;20.914;2023-03-01T03:19:55;101967.16;;;-5.25;78.55
59417;BME280;45222;52.458;20.914;2023-03-01T03:23:40;101962.69;;;-5.32;78.58
59417;BME280;45222;52.458;20.914;2023-03-01T03:27:25;101960.81;;;-5.36;78.61
59417;BME280;45222;52.458;20.914;2023-03-01T03:31:11;101966.25;;;-5.39;78.46
59417;BME280;45222;52.458;20.914;2023-03-01T03:34:56;101962.43;;;-5.39;78.94
59417;BME280;45222;52.458;20.914;2023-03-01T03:38:41;101951.96;;;-5.32;78.89
59417;BME280;45222;52.458;20.914;2023-03-01T03:42:27;101933.13;;;-5.22;79.11
59417;BME280;45222;52.458;20.914;2023-03-01T03:46:12;101925.63;;;-5.15;79.31
59417;BME280;45222;52.458;20.914;2023-03-01T03:49:57;101924.35;;;-5.07;79.45
59417;BME280;45222;52.458;20.914;2023-03-01T03:53:43;101921.61;;;-5.02;79.59
59417;BME280;45222;52.458;20.914;2023-03-01T03:57:29;101911.34;;;-4.99;79.56
59417;BME280;45222;52.458;20.914;2023-03-01T04:01:14;101921.07;;;-4.94;79.66
59417;BME280;45222;52.458;20.914;2023-03-01T04:04:59;101931.16;;;-4.93;79.78
59417;BME280;45222;52.458;20.914;2023-03-01T04:08:45;101939.13;;;-4.98;80.01
59417;BME280;45222;52.458;20.914;2023-03-01T04:12:30;101937.88;;;-4.99;79.36
59417;BME280;45222;52.458;20.914;2023-03-01T04:16:18;101924.23;;;-4.97;79.45
59417;BME280;45222;52.458;20.914;2023-03-01T04:20:05;101911.80;;;-4.91;79.36
59417;BME280;45222;52.458;20.914;2023-03-01T04:23:51;101906.66;;;-4.81;79.44
59417;BME280;45222;52.458;20.914;2023-03-01T04:27:37;101897.35;;;-4.75;79.79
59417;BME280;45222;52.458;20.914;2023-03-01T04:31:22;101896.85;;;-4.70;79.77
59417;BME280;45222;52.458;20.914;2023-03-01T04:35:09;101892.86;;;-4.65;79.64
59417;BME280;45222;52.458;20.914;2023-03-01T04:38:54;101896.36;;;-4.64;79.95
59417;BME280;45222;52.458;20.914;2023-03-01T04:42:40;101895.89;;;-4.63;79.86
59417;BME280;45222;52.458;20.914;2023-03-01T04:46:26;101890.45;;;-4.64;79.73
59417;BME280;45222;52.458;20.914;2023-03-01T04:50:13;101889.64;;;-4.67;79.93
59417;BME280;45222;52.458;20.914;2023-03-01T04:53:59;101877.25;;;-4.69;79.96
59417;BME280;45222;52.458;20.914;2023-03-01T04:57:46;101877.68;;;-4.72;79.91
59417;BME280;45222;52.458;20.914;2023-03-01T05:01:31;101890.96;;;-4.74;79.90
59417;BME280;45222;52.458;20.914;2023-03-01T05:05:17;101888.70;;;-4.78;79.69
59417;BME280;45222;52.458;20.914;2023-03-01T05:09:02;101889.16;;;-4.80;79.49
59417;BME280;45222;52.458;20.914;2023-03-01T05:12:48;101892.06;;;-4.77;79.69
59417;BME280;45222;52.458;20.914;2023-03-01T05:16:33;101895.92;;;-4.66;79.75
59417;BME280;45222;52.458;20.914;2023-03-01T05:20:19;101900.09;;;-4.53;79.85
59417;BME280;45222;52.458;20.914;2023-03-01T05:24:08;101894.27;;;-4.41;79.80
59417;BME280;45222;52.458;20.914;2023-03-01T05:27:56;101894.54;;;-4.34;79.78
59417;BME280;45222;52.458;20.914;2023-03-01T05:31:41;101900.51;;;-4.33;79.78
59417;BME280;45222;52.458;20.914;2023-03-01T05:35:27;101906.95;;;-4.32;79.43
59417;BME280;45222;52.458;20.914;2023-03-01T05:39:13;101910.37;;;-4.34;79.53
59417;BME280;45222;52.458;20.914;2023-03-01T05:42:59;101915.44;;;-4.37;79.09
59417;BME280;45222;52.458;20.914;2023-03-01T05:46:44;101914.09;;;-4.41;79.26
59417;BME280;45222;52.458;20.914;2023-03-01T05:50:32;101920.78;;;-4.47;79.05
59417;BME280;45222;52.458;20.914;2023-03-01T05:54:18;101924.61;;;-4.52;79.23
59417;BME280;45222;52.458;20.914;2023-03-01T05:58:05;101922.75;;;-4.55;79.35
59417;BME280;45222;52.458;20.914;2023-03-01T06:01:50;101926.67;;;-4.57;79.53
59417;BME280;45222;52.458;20.914;2023-03-01T06:05:36;101929.81;;;-4.57;79.45
59417;BME280;45222;52.458;20.914;2023-03-01T06:09:21;101927.30;;;-4.54;79.52
59417;BME280;45222;52.458;20.914;2023-03-01T06:13:07;101928.17;;;-4.45;79.24
59417;BME280;45222;52.458;20.914;2023-03-01T06:16:52;101919.10;;;-4.32;79.45
59417;BME280;45222;52.458;20.914;2023-03-01T06:20:37;101919.23;;;-4.19;79.32
59417;BME280;45222;52.458;20.914;2023-03-01T06:24:22;101917.17;;;-4.09;79.38
59417;BME280;45222;52.458;20.914;2023-03-01T06:28:08;101918.59;;;-3.98;79.60
59417;BME280;45222;52.458;20.914;2023-03-01T06:31:53;101910.97;;;-3.93;79.73
59417;BME280;45222;52.458;20.914;2023-03-01T06:35:38;101917.29;;;-3.86;79.83
59417;BME280;45222;52.458;20.914;2023-03-01T06:39:23;101914.28;;;-3.78;79.75
59417;BME280;45222;52.458;20.914;2023-03-01T06:43:09;101910.06;;;-3.69;79.54
59417;BME280;45222;52.458;20.914;2023-03-01T06:46:54;101910.62;;;-3.58;79.35
59417;BME280;45222;52.458;20.914;2023-03-01T06:50:39;101917.48;;;-3.45;79.82
59417;BME280;45222;52.458;20.914;2023-03-01T06:54:25;101926.07;;;-3.28;79.68
59417;BME280;45222;52.458;20.914;2023-03-01T06:58:10;101923.42;;;-3.07;79.78
59417;BME280;45222;52.458;20.914;2023-03-01T07:01:55;101913.91;;;-2.84;80.06
59417;BME280;45222;52.458;20.914;2023-03-01T07:05:41;101918.73;;;-2.63;80.05
59417;BME280;45222;52.458;20.914;2023-03-01T07:09:26;101915.42;;;-2.45;80.03
59417;BME280;45222;52.458;20.914;2023-03-01T07:13:12;101909.77;;;-2.30;79.76
59417;BME280;45222;52.458;20.914;2023-03-01T07:16:57;101911.15;;;-2.18;79.35
59417;BME280;45222;52.458;20.914;2023-03-01T07:20:42;101909.73;;;-2.13;79.53
59417;BME280;45222;52.458;20.914;2023-03-01T07:24:28;101904.20;;;-2.05;79.33
59417;BME280;45222;52.458;20.914;2023-03-01T07:28:13;101902.55;;;-1.96;79.13
59417;BME280;45222;52.458;20.914;2023-03-01T07:31:59;101905.00;;;-1.82;79.08
59417;BME280;45222;52.458;20.914;2023-03-01T07:35:44;101912.45;;;-1.64;79.27
59417;BME280;45222;52.458;20.914;2023-03-01T07:39:29;101913.30;;;-1.45;79.31
59417;BME280;45222;52.458;20.914;2023-03-01T07:43:14;101914.05;;;-1.22;79.37
59417;BME280;45222;52.458;20.914;2023-03-01T07:47:00;101909.16;;;-1.00;78.90
59417;BME280;45222;52.458;20.914;2023-03-01T07:50:45;101906.67;;;-0.79;78.43
59417;BME280;45222;52.458;20.914;2023-03-01T07:54:30;101905.13;;;-0.63;78.07
59417;BME280;45222;52.458;20.914;2023-03-01T07:58:15;101910.18;;;-0.47;77.87
59417;BME280;45222;52.458;20.914;2023-03-01T08:02:01;101903.52;;;-0.33;77.56
59417;BME280;45222;52.458;20.914;2023-03-01T08:05:46;101904.14;;;-0.19;77.42
59417;BME280;45222;52.458;20.914;2023-03-01T08:09:33;101903.70;;;-0.07;77.32
59417;BME280;45222;52.458;20.914;2023-03-01T08:13:19;101896.09;;;0.08;77.17
59417;BME280;45222;52.458;20.914;2023-03-01T08:17:06;101894.50;;;0.26;77.38
59417;BME280;45222;52.458;20.914;2023-03-01T08:20:52;101894.55;;;0.47;77.48
59417;BME280;45222;52.458;20.914;2023-03-01T08:24:37;101897.68;;;0.66;76.96
59417;BME280;45222;52.458;20.914;2023-03-01T08:28:22;101901.86;;;0.76;76.28
59417;BME280;45222;52.458;20.914;2023-03-01T08:32:08;101899.96;;;0.88;76.01
59417;BME280;45222;52.458;20.914;2023-03-01T08:36:01;101895.68;;;1.05;75.69
59417;BME280;45222;52.458;20.914;2023-03-01T08:39:47;101897.15;;;1.22;75.21
59417;BME280;45222;52.458;20.914;2023-03-01T08:43:32;101904.45;;;1.31;74.61
59417;BME280;45222;52.458;20.914;2023-03-01T08:47:17;101899.04;;;1.44;75.07
59417;BME280;45222;52.458;20.914;2023-03-01T08:51:09;101895.98;;;1.64;75.26
59417;BME280;45222;52.458;20.914;2023-03-01T08:54:54;101892.37;;;1.85;74.92
59417;BME280;45222;52.458;20.914;2023-03-01T08:58:42;101891.72;;;2.05;74.68
59417;BME280;45222;52.458;20.914;2023-03-01T09:02:28;101892.05;;;2.17;74.23
59417;BME280;45222;52.458;20.914;2023-03-01T09:06:14;101892.27;;;2.24;73.83
59417;BME280;45222;52.458;20.914;2023-03-01T09:10:00;101887.23;;;2.29;73.96
59417;BME280;45222;52.458;20.914;2023-03-01T09:13:45;101886.95;;;2.36;73.62
59417;BME280;45222;52.458;20.914;2023-03-01T09:17:31;101881.92;;;2.42;73.66
59417;BME280;45222;52.458;20.914;2023-03-01T09:21:17;101882.52;;;2.50;74.30
59417;BME280;45222;52.458;20.914;2023-03-01T09:25:04;101874.35;;;2.59;74.52
59417;BME280;45222;52.458;20.914;2023-03-01T09:28:51;101870.90;;;2.66;73.88
59417;BME280;45222;52.458;20.914;2023-03-01T09:32:37;101867.27;;;2.75;73.63
59417;BME280;45222;52.458;20.914;2023-03-01T09:36:27;101868.02;;;2.78;72.97
59417;BME280;45222;52.458;20.914;2023-03-01T09:40:16;101861.41;;;2.89;73.23
59417;BME280;45222;52.458;20.914;2023-03-01T09:44:05;101855.00;;;3.02;72.75
59417;BME280;45222;52.458;20.914;2023-03-01T09:47:53;101848.72;;;3.09;72.95
59417;BME280;45222;52.458;20.914;2023-03-01T09:51:39;101845.63;;;3.20;73.44
59417;BME280;45222;52.458;20.914;2023-03-01T09:55:30;101840.08;;;3.38;73.36
59417;BME280;45222;52.458;20.914;2023-03-01T09:59:21;101841.70;;;3.43;72.36
59417;BME280;45222;52.458;20.914;2023-03-01T10:03:13;101834.66;;;3.42;72.70
59417;BME280;45222;52.458;20.914;2023-03-01T10:07:11;101831.36;;;3.54;72.34
59417;BME280;45222;52.458;20.914;2023-03-01T10:10:59;101830.17;;;3.61;71.99
59417;BME280;45222;52.458;20.914;2023-03-01T10:14:53;101822.80;;;3.67;71.92
59417;BME280;45222;52.458;20.914;2023-03-01T10:18:40;101822.30;;;3.79;71.98
59417;BME280;45222;52.458;20.914;2023-03-01T10:22:28;101817.07;;;3.93;71.95
59417;BME280;45222;52.458;20.914;2023-03-01T10:26:25;101809.16;;;4.06;71.62
59417;BME280;45222;52.458;20.914;2023-03-01T10:30:17;101809.71;;;4.16;71.39
59417;BME280;45222;52.458;20.914;2023-03-01T10:34:11;101810.06;;;4.20;71.24
59417;BME280;45222;52.458;20.914;2023-03-01T10:38:03;101808.30;;;4.26;71.59
59417;BME280;45222;52.458;20.914;2023-03-01T10:41:58;101807.78;;;4.34;71.58
59417;BME280;45222;52.458;20.914;2023-03-01T10:45:44;101807.61;;;4.41;71.80
59417;BME280;45222;52.458;20.914;2023-03-01T10:49:29;101804.61;;;4.59;71.33
59417;BME280;45222;52.458;20.914;2023-03-01T10:53:23;101814.81;;;4.73;71.26
59417;BME280;45222;52.458;20.914;2023-03-01T10:57:27;101811.10;;;4.80;71.04
59417;BME280;45222;52.458;20.914;2023-03-01T11:01:27;101817.27;;;4.77;71.16
59417;BME280;45222;52.458;20.914;2023-03-01T11:05:23;101806.00;;;4.77;71.47
59417;BME280;45222;52.458;20.914;2023-03-01T11:09:17;101798.05;;;4.82;71.34
59417;BME280;45222;52.458;20.914;2023-03-01T11:13:14;101796.12;;;4.88;71.16
59417;BME280;45222;52.458;20.914;2023-03-01T11:17:02;101794.86;;;4.92;71.24
59417;BME280;45222;52.458;20.914;2023-03-01T11:20:49;101787.45;;;4.98;70.99
59417;BME280;45222;52.458;20.914;2023-03-01T11:24:40;101788.36;;;4.83;71.10
59417;BME280;45222;52.458;20.914;2023-03-01T11:28:28;101784.67;;;4.74;71.18
59417;BME280;45222;52.458;20.914;2023-03-01T11:32:15;101785.73;;;4.74;71.68
59417;BME280;45222;52.458;20.914;2023-03-01T11:36:05;101780.42;;;4.90;71.44
59417;BME280;45222;52.458;20.914;2023-03-01T11:40:01;101782.86;;;5.03;71.13
59417;BME280;45222;52.458;20.914;2023-03-01T11:43:54;101780.02;;;5.14;71.18
59417;BME280;45222;52.458;20.914;2023-03-01T11:51:58;101785.70;;;5.47;70.94
59417;BME280;45222;52.458;20.914;2023-03-01T11:55:55;101779.13;;;5.57;70.03
59417;BME280;45222;52.458;20.914;2023-03-01T12:00:02;101778.95;;;5.54;70.15
59417;BME280;45222;52.458;20.914;2023-03-01T12:04:09;101777.27;;;5.74;69.86
59417;BME280;45222;52.458;20.914;2023-03-01T12:08:03;101776.25;;;5.94;69.72
59417;BME280;45222;52.458;20.914;2023-03-01T12:12:03;101761.55;;;6.02;69.36
59417;BME280;45222;52.458;20.914;2023-03-01T12:15:59;101758.44;;;6.19;69.20
59417;BME280;45222;52.458;20.914;2023-03-01T12:24:30;101747.77;;;6.47;68.62
59417;BME280;45222;52.458;20.914;2023-03-01T12:28:37;101746.53;;;6.67;68.28
59417;BME280;45222;52.458;20.914;2023-03-01T12:32:35;101750.09;;;6.82;66.91
59417;BME280;45222;52.458;20.914;2023-03-01T12:36:48;101742.18;;;6.94;66.92
59417;BME280;45222;52.458;20.914;2023-03-01T12:40:53;101737.80;;;7.06;66.05
59417;BME280;45222;52.458;20.914;2023-03-01T12:44:59;101741.02;;;7.17;66.36
59417;BME280;45222;52.458;20.914;2023-03-01T12:48:56;101736.27;;;7.28;66.04
59417;BME280;45222;52.458;20.914;2023-03-01T12:52:47;101729.91;;;7.41;65.59
59417;BME280;45222;52.458;20.914;2023-03-01T12:56:36;101727.83;;;7.52;65.06
59417;BME280;45222;52.458;20.914;2023-03-01T13:00:29;101730.75;;;7.57;64.72
59417;BME280;45222;52.458;20.914;2023-03-01T13:04:27;101731.77;;;7.60;64.04
59417;BME280;45222;52.458;20.914;2023-03-01T13:08:16;101727.63;;;7.40;63.21
59417;BME280;45222;52.458;20.914;2023-03-01T13:12:44;101731.00;;;7.39;63.75
59417;BME280;45222;52.458;20.914;2023-03-01T13:16:47;101734.60;;;7.35;62.69
59417;BME280;45222;52.458;20.914;2023-03-01T13:20:45;101727.73;;;7.19;62.82
59417;BME280;45222;52.458;20.914;2023-03-01T13:24:37;101725.11;;;7.29;63.10
59417;BME280;45222;52.458;20.914;2023-03-01T13:28:56;101722.84;;;7.53;62.41
59417;BME280;45222;52.458;20.914;2023-03-01T13:32:42;101720.90;;;7.54;62.21
59417;BME280;45222;52.458;20.914;2023-03-01T13:36:48;101717.61;;;7.60;62.40
59417;BME280;45222;52.458;20.914;2023-03-01T13:40:58;101715.60;;;7.52;61.63
59417;BME280;45222;52.458;20.914;2023-03-01T13:44:44;101710.73;;;7.46;62.02
59417;BME280;45222;52.458;20.914;2023-03-01T13:48:30;101704.19;;;7.58;62.35
59417;BME280;45222;52.458;20.914;2023-03-01T13:52:37;101705.48;;;7.67;62.08
59417;BME280;45222;52.458;20.914;2023-03-01T13:56:25;101702.19;;;7.49;61.77
59417;BME280;45222;52.458;20.914;2023-03-01T14:00:27;101696.45;;;7.42;62.59
59417;BME280;45222;52.458;20.914;2023-03-01T14:04:21;101685.84;;;7.53;62.37
59417;BME280;45222;52.458;20.914;2023-03-01T14:08:19;101693.39;;;7.58;61.84
59417;BME280;45222;52.458;20.914;2023-03-01T14:12:25;101691.29;;;7.44;62.06
59417;BME280;45222;52.458;20.914;2023-03-01T14:16:20;101684.78;;;7.41;62.62
59417;BME280;45222;52.458;20.914;2023-03-01T14:20:14;101677.46;;;7.57;62.65
59417;BME280;45222;52.458;20.914;2023-03-01T14:24:01;101677.45;;;7.70;62.59
59417;BME280;45222;52.458;20.914;2023-03-01T14:27:52;101672.48;;;7.69;61.98
59417;BME280;45222;52.458;20.914;2023-03-01T14:31:39;101672.38;;;7.54;61.93
59417;BME280;45222;52.458;20.914;2023-03-01T14:35:28;101666.48;;;7.33;62.21
59417;BME280;45222;52.458;20.914;2023-03-01T14:39:19;101659.06;;;7.07;62.98
59417;BME280;45222;52.458;20.914;2023-03-01T14:43:12;101658.39;;;6.90;63.32
59417;BME280;45222;52.458;20.914;2023-03-01T14:47:02;101654.95;;;6.83;63.95
59417;BME280;45222;52.458;20.914;2023-03-01T14:50:47;101646.58;;;6.88;64.06
59417;BME280;45222;52.458;20.914;2023-03-01T14:54:39;101647.17;;;6.97;63.97
59417;BME280;45222;52.458;20.914;2023-03-01T14:58:26;101644.89;;;6.94;63.78
59417;BME280;45222;52.458;20.914;2023-03-01T15:02:15;101644.98;;;6.89;64.15
59417;BME280;45222;52.458;20.914;2023-03-01T15:06:05;101645.90;;;6.86;64.48
59417;BME280;45222;52.458;20.914;2023-03-01T15:09:51;101648.61;;;6.80;64.47
59417;BME280;45222;52.458;20.914;2023-03-01T15:13:37;101651.55;;;6.71;64.76
59417;BME280;45222;52.458;20.914;2023-03-01T15:17:28;101645.50;;;6.60;64.97
59417;BME280;45222;52.458;20.914;2023-03-01T15:21:20;101634.55;;;6.42;65.18
59417;BME280;45222;52.458;20.914;2023-03-01T15:25:15;101632.44;;;6.26;65.50
59417;BME280;45222;52.458;20.914;2023-03-01T15:29:01;101631.88;;;6.09;65.94
59417;BME280;45222;52.458;20.914;2023-03-01T15:32:46;101625.14;;;5.92;65.96
59417;BME280;45222;52.458;20.914;2023-03-01T15:36:36;101619.61;;;5.77;66.54
59417;BME280;45222;52.458;20.914;2023-03-01T15:40:24;101624.99;;;5.66;67.36
59417;BME280;45222;52.458;20.914;2023-03-01T15:44:17;101623.82;;;5.57;68.06
59417;BME280;45222;52.458;20.914;2023-03-01T15:48:04;101624.25;;;5.49;68.31
59417;BME280;45222;52.458;20.914;2023-03-01T15:51:50;101617.63;;;5.37;68.21
59417;BME280;45222;52.458;20.914;2023-03-01T15:55:37;101618.95;;;5.23;68.27
59417;BME280;45222;52.458;20.914;2023-03-01T15:59:23;101615.19;;;5.04;68.51
59417;BME280;45222;52.458;20.914;2023-03-01T16:03:09;101620.39;;;4.83;68.98
59417;BME280;45222;52.458;20.914;2023-03-01T16:06:56;101616.23;;;4.62;69.40
59417;BME280;45222;52.458;20.914;2023-03-01T16:10:42;101613.86;;;4.41;69.77
59417;BME280;45222;52.458;20.914;2023-03-01T16:14:28;101617.08;;;4.20;69.82
59417;BME280;45222;52.458;20.914;2023-03-01T16:18:13;101619.58;;;4.01;70.08
59417;BME280;45222;52.458;20.914;2023-03-01T16:21:58;101624.34;;;3.84;70.78
59417;BME280;45222;52.458;20.914;2023-03-01T16:25:44;101628.20;;;3.65;71.18
59417;BME280;45222;52.458;20.914;2023-03-01T16:29:29;101621.70;;;3.53;71.62
59417;BME280;45222;52.458;20.914;2023-03-01T16:33:15;101618.17;;;3.41;71.78
59417;BME280;45222;52.458;20.914;2023-03-01T16:37:00;101613.05;;;3.25;71.82
59417;BME280;45222;52.458;20.914;2023-03-01T16:40:48;101618.45;;;3.02;72.28
59417;BME280;45222;52.458;20.914;2023-03-01T16:44:34;101618.56;;;2.84;72.39
59417;BME280;45222;52.458;20.914;2023-03-01T16:48:19;101616.73;;;2.64;72.69
59417;BME280;45222;52.458;20.914;2023-03-01T16:52:05;101621.90;;;2.43;73.02
59417;BME280;45222;52.458;20.914;2023-03-01T16:55:54;101626.39;;;2.29;73.62
59417;BME280;45222;52.458;20.914;2023-03-01T16:59:40;101627.20;;;2.20;74.19
59417;BME280;45222;52.458;20.914;2023-03-01T17:03:26;101625.24;;;2.15;74.60
59417;BME280;45222;52.458;20.914;2023-03-01T17:07:13;101625.53;;;2.05;74.66
59417;BME280;45222;52.458;20.914;2023-03-01T17:11:04;101633.91;;;2.00;74.99
59417;BME280;45222;52.458;20.914;2023-03-01T17:14:50;101635.25;;;1.90;74.78
59417;BME280;45222;52.458;20.914;2023-03-01T17:18:35;101634.63;;;1.78;74.86
59417;BME280;45222;52.458;20.914;2023-03-01T17:22:22;101639.77;;;1.63;74.82
59417;BME280;45222;52.458;20.914;2023-03-01T17:26:07;101639.96;;;1.47;74.93
59417;BME280;45222;52.458;20.914;2023-03-01T17:29:53;101640.15;;;1.29;75.31
59417;BME280;45222;52.458;20.914;2023-03-01T17:33:39;101653.15;;;1.17;75.61
59417;BME280;45222;52.458;20.914;2023-03-01T17:37:24;101646.95;;;1.10;76.05
59417;BME280;45222;52.458;20.914;2023-03-01T17:41:10;101642.09;;;0.99;75.95
59417;BME280;45222;52.458;20.914;2023-03-01T17:44:55;101639.52;;;0.88;75.97
59417;BME280;45222;52.458;20.914;2023-03-01T17:48:41;101641.11;;;0.74;76.05
59417;BME280;45222;52.458;20.914;2023-03-01T17:52:27;101641.06;;;0.57;76.08
59417;BME280;45222;52.458;20.914;2023-03-01T17:56:12;101636.23;;;0.37;76.30
59417;BME280;45222;52.458;20.914;2023-03-01T17:59:57;101640.16;;;0.17;76.28
59417;BME280;45222;52.458;20.914;2023-03-01T18:03:43;101639.45;;;0.05;76.19
59417;BME280;45222;52.458;20.914;2023-03-01T18:07:29;101633.49;;;-0.07;76.54
59417;BME280;45222;52.458;20.914;2023-03-01T18:11:15;101635.61;;;-0.17;77.05
59417;BME280;45222;52.458;20.914;2023-03-01T18:15:01;101634.84;;;-0.22;77.50
59417;BME280;45222;52.458;20.914;2023-03-01T18:18:47;101634.80;;;-0.35;78.37
59417;BME280;45222;52.458;20.914;2023-03-01T18:22:33;101638.02;;;-0.40;78.34
59417;BME280;45222;52.458;20.914;2023-03-01T18:26:18;101638.80;;;-0.46;78.40
59417;BME280;45222;52.458;20.914;2023-03-01T18:30:11;101634.72;;;-0.60;79.00
59417;BME280;45222;52.458;20.914;2023-03-01T18:33:56;101631.61;;;-0.67;79.37
59417;BME280;45222;52.458;20.914;2023-03-01T18:37:42;101634.60;;;-0.67;79.01
59417;BME280;45222;52.458;20.914;2023-03-01T18:41:28;101637.92;;;-0.67;79.13
59417;BME280;45222;52.458;20.914;2023-03-01T18:45:14;101640.41;;;-0.64;79.15
59417;BME280;45222;52.458;20.914;2023-03-01T18:49:01;101636.60;;;-0.52;79.36
59417;BME280;45222;52.458;20.914;2023-03-01T18:52:46;101635.14;;;-0.46;79.38
59417;BME280;45222;52.458;20.914;2023-03-01T18:56:33;101636.83;;;-0.39;79.39
59417;BME280;45222;52.458;20.914;2023-03-01T19:00:21;101641.27;;;-0.35;79.25
59417;BME280;45222;52.458;20.914;2023-03-01T19:04:07;101646.27;;;-0.38;79.13
59417;BME280;45222;52.458;20.914;2023-03-01T19:07:54;101652.23;;;-0.57;78.97
59417;BME280;45222;52.458;20.914;2023-03-01T19:11:39;101654.89;;;-0.74;79.20
59417;BME280;45222;52.458;20.914;2023-03-01T19:15:25;101666.92;;;-0.85;79.28
59417;BME280;45222;52.458;20.914;2023-03-01T19:19:10;101668.67;;;-0.85;79.63
59417;BME280;45222;52.458;20.914;2023-03-01T19:22:56;101664.15;;;-0.84;79.70
59417;BME280;45222;52.458;20.914;2023-03-01T19:26:41;101657.75;;;-0.90;79.67
59417;BME280;45222;52.458;20.914;2023-03-01T19:30:27;101658.23;;;-0.93;79.33
59417;BME280;45222;52.458;20.914;2023-03-01T19:34:12;101658.58;;;-1.02;79.32
59417;BME280;45222;52.458;20.914;2023-03-01T19:37:57;101659.34;;;-1.07;79.21
59417;BME280;45222;52.458;20.914;2023-03-01T19:41:43;101659.90;;;-1.14;79.09
59417;BME280;45222;52.458;20.914;2023-03-01T19:45:31;101663.46;;;-1.18;79.24
59417;BME280;45222;52.458;20.914;2023-03-01T19:49:16;101660.06;;;-1.23;79.29
59417;BME280;45222;52.458;20.914;2023-03-01T19:53:02;101667.69;;;-1.25;79.56
59417;BME280;45222;52.458;20.914;2023-03-01T19:56:47;101667.72;;;-1.24;79.58
59417;BME280;45222;52.458;20.914;2023-03-01T20:00:34;101669.81;;;-1.24;79.37